LZU weather

Gwinnett County Briscoe Field
Lawrenceville, Georgia, United States

Public forecast

Using degrees Fahrenheit for public forecast. Weather courtesy of forecast.io.

METAR (pilot weather report)

Retrieved 2019/08/24 23:05 UTC (48 minutes ago):

KLZU 242305Z 08008KT 1SM +RA BR BKN009 BKN016 OVC049 22/22 A3004

TAF (pilot weather forecast)

Closest forecast is DeKalb Peachtree Airport, 18.0 nm (33.3 km) WSW. Retrieved 2019/08/24 18:30 UTC (5 hours ago):

TAF KPDK 241727Z 2418/2518 08005KT P6SM VCSH BKN040 TEMPO 2419/2423 VRB15G25KT 5SM TSRA BKN035CB FM250100 08007KT P6SM -SHRA FEW012 BKN020 FM250700 08008KT P6SM OVC008 FM251100 07008KT P6SM VCSH OVC006 FM251600 08008KT P6SM VCSH OVC012